Terminal Aerodrome Forecast
Issued by NWS

Home | Current Version | Previous Version | Text Only | Print | Product List | Glossary On
Versions: 1 2 3 4 5 6 7 8 9 10 11 12 13 14 15 16 17
871
FTUS46 KPDT 291727
TAFDLS
TAF
KDLS 291727Z 2918/3018 31003KT P6SM -SHRA BKN050 OVC070
      TEMPO 2918/2920 4SM -SHRA BR FEW008 OVC050
     FM292100 31012KT P6SM VCSH SCT050 BKN070
     FM300300 30012KT P6SM SCT050 BKN070
     FM300900 30015KT P6SM FEW050 SCT070
     FM301500 30020G30KT P6SM SCT070=

USA.gov is the U.S. government's official web portal to all federal, state and local government web resources and services.